MDLR/LRM METAR and TAF weather

Enter ICAO airport designator
Station Type Date Time Source
MDLR METAR 2020/10/29 16:00 UTC NOAA

MDLR 291600Z 12010KT 9999 SCT018 31/24 Q1012


Station Type Date Time Source
MDLR Decoded METAR 2020/10/29 16:00 UTC NOAA

La Romana International Airport, Dominican Republic (MDLR) 18-25N 068-57W
Oct 29, 2020 - 12:00 PM EDT / 2020.10.29 1600 UTC
Wind: from the ESE (120 degrees) at 12 MPH (10 KT):0
Visibility: greater than 7 mile(s):0
Sky conditions: partly cloudy
Temperature: 87 F (31 C)
Heat index: 95.7 F (35.4 C):1
Dew Point: 75 F (24 C)
Relative Humidity: 66%
Pressure (altimeter): 29.88 in. Hg (1012 hPa)
ob: MDLR 291600Z 12010KT 9999 SCT018 31/24 Q1012
cycle: 16

Station Type Date Time Source
MDLR TAF 2020/10/29 18:39 UTC NOAA

TAF TAF MDLR 291600Z 2918/3018 08015KT 9999 SCT018 PROB40 2918/2923 6000 TSRA FEW016CB BKN016

Example: see airport list